sensor_id;sensor_type;location;lat;lon;timestamp;pressure;altitude;pressure_sealevel;temperature;humidity
19797;BME280;10058;57.654;12.044;2023-04-09T00:00:10;102389.13;;;6.13;100.00
19797;BME280;10058;57.654;12.044;2023-04-09T00:02:36;102380.28;;;6.24;100.00
19797;BME280;10058;57.654;12.044;2023-04-09T00:08:04;102377.19;;;6.29;100.00
19797;BME280;10058;57.654;12.044;2023-04-09T00:10:29;102373.50;;;6.39;100.00
19797;BME280;10058;57.654;12.044;2023-04-09T00:12:55;102377.06;;;6.40;100.00
19797;BME280;10058;57.654;12.044;2023-04-09T00:15:20;102375.41;;;6.42;100.00
19797;BME280;10058;57.654;12.044;2023-04-09T00:17:45;102373.59;;;6.41;100.00
19797;BME280;10058;57.654;12.044;2023-04-09T00:20:10;102364.72;;;6.39;100.00
19797;BME280;10058;57.654;12.044;2023-04-09T00:22:35;102369.66;;;6.34;100.00
19797;BME280;10058;57.654;12.044;2023-04-09T00:28:03;102369.53;;;6.33;100.00
19797;BME280;10058;57.654;12.044;2023-04-09T00:30:29;102364.75;;;6.27;100.00
19797;BME280;10058;57.654;12.044;2023-04-09T00:32:54;102369.09;;;6.26;100.00
19797;BME280;10058;57.654;12.044;2023-04-09T00:35:20;102372.09;;;6.19;100.00
19797;BME280;10058;57.654;12.044;2023-04-09T00:37:45;102365.63;;;6.14;100.00
19797;BME280;10058;57.654;12.044;2023-04-09T00:40:10;102363.91;;;6.15;100.00
19797;BME280;10058;57.654;12.044;2023-04-09T00:42:35;102362.31;;;6.17;100.00
19797;BME280;10058;57.654;12.044;2023-04-09T00:48:04;102358.31;;;6.10;100.00
19797;BME280;10058;57.654;12.044;2023-04-09T00:50:29;102362.13;;;6.02;100.00
19797;BME280;10058;57.654;12.044;2023-04-09T00:52:55;102361.53;;;6.06;100.00
19797;BME280;10058;57.654;12.044;2023-04-09T00:55:20;102360.53;;;6.04;100.00
19797;BME280;10058;57.654;12.044;2023-04-09T00:57:45;102360.31;;;6.01;100.00
19797;BME280;10058;57.654;12.044;2023-04-09T01:00:11;102359.16;;;5.98;100.00
19797;BME280;10058;57.654;12.044;2023-04-09T01:02:37;102359.06;;;5.96;100.00
19797;BME280;10058;57.654;12.044;2023-04-09T01:10:41;102352.97;;;6.09;100.00
19797;BME280;10058;57.654;12.044;2023-04-09T01:15:38;102350.22;;;6.07;100.00
19797;BME280;10058;57.654;12.044;2023-04-09T01:18:09;102352.28;;;6.11;100.00
19797;BME280;10058;57.654;12.044;2023-04-09T01:20:39;102350.22;;;6.07;100.00
19797;BME280;10058;57.654;12.044;2023-04-09T01:28:52;102346.97;;;5.98;100.00
19797;BME280;10058;57.654;12.044;2023-04-09T01:31:19;102348.56;;;5.96;100.00
19797;BME280;10058;57.654;12.044;2023-04-09T01:33:45;102347.44;;;5.92;100.00
19797;BME280;10058;57.654;12.044;2023-04-09T01:36:10;102347.88;;;5.87;100.00
19797;BME280;10058;57.654;12.044;2023-04-09T01:38:38;102340.00;;;5.87;100.00
19797;BME280;10058;57.654;12.044;2023-04-09T01:41:04;102353.72;;;5.83;100.00
19797;BME280;10058;57.654;12.044;2023-04-09T01:43:30;102350.06;;;5.81;100.00
19797;BME280;10058;57.654;12.044;2023-04-09T01:48:59;102344.97;;;5.71;100.00
19797;BME280;10058;57.654;12.044;2023-04-09T01:51:25;102356.38;;;5.59;100.00
19797;BME280;10058;57.654;12.044;2023-04-09T01:53:51;102350.81;;;5.43;100.00
19797;BME280;10058;57.654;12.044;2023-04-09T01:56:16;102357.00;;;5.32;100.00
19797;BME280;10058;57.654;12.044;2023-04-09T01:58:41;102357.88;;;5.21;100.00
19797;BME280;10058;57.654;12.044;2023-04-09T02:01:26;102358.25;;;5.14;100.00
19797;BME280;10058;57.654;12.044;2023-04-09T02:03:55;102359.84;;;5.12;100.00
19797;BME280;10058;57.654;12.044;2023-04-09T02:09:23;102364.03;;;4.86;100.00
19797;BME280;10058;57.654;12.044;2023-04-09T02:11:48;102367.91;;;4.80;100.00
19797;BME280;10058;57.654;12.044;2023-04-09T02:14:14;102366.75;;;4.76;100.00
19797;BME280;10058;57.654;12.044;2023-04-09T02:16:40;102361.28;;;4.85;100.00
19797;BME280;10058;57.654;12.044;2023-04-09T02:19:06;102367.13;;;4.93;100.00
19797;BME280;10058;57.654;12.044;2023-04-09T02:21:31;102368.38;;;4.98;100.00
19797;BME280;10058;57.654;12.044;2023-04-09T02:23:56;102360.84;;;4.90;100.00
19797;BME280;10058;57.654;12.044;2023-04-09T02:29:24;102355.34;;;4.76;100.00
19797;BME280;10058;57.654;12.044;2023-04-09T02:31:49;102366.28;;;4.70;100.00
19797;BME280;10058;57.654;12.044;2023-04-09T02:34:17;102364.44;;;4.69;100.00
19797;BME280;10058;57.654;12.044;2023-04-09T02:36:42;102359.69;;;4.64;100.00
19797;BME280;10058;57.654;12.044;2023-04-09T02:39:07;102360.34;;;4.61;100.00
19797;BME280;10058;57.654;12.044;2023-04-09T02:41:32;102353.28;;;4.60;100.00
19797;BME280;10058;57.654;12.044;2023-04-09T02:43:57;102358.28;;;4.57;100.00
19797;BME280;10058;57.654;12.044;2023-04-09T02:49:25;102356.06;;;4.40;100.00
19797;BME280;10058;57.654;12.044;2023-04-09T02:51:50;102355.50;;;4.32;100.00
19797;BME280;10058;57.654;12.044;2023-04-09T02:54:15;102353.66;;;4.31;100.00
19797;BME280;10058;57.654;12.044;2023-04-09T02:56:40;102357.91;;;4.19;100.00
19797;BME280;10058;57.654;12.044;2023-04-09T02:59:06;102353.16;;;4.13;100.00
19797;BME280;10058;57.654;12.044;2023-04-09T03:01:31;102354.22;;;4.05;100.00
19797;BME280;10058;57.654;12.044;2023-04-09T03:03:56;102343.75;;;4.05;100.00
19797;BME280;10058;57.654;12.044;2023-04-09T03:09:24;102347.72;;;4.00;100.00
19797;BME280;10058;57.654;12.044;2023-04-09T03:11:49;102351.94;;;3.98;100.00
19797;BME280;10058;57.654;12.044;2023-04-09T03:14:14;102343.22;;;3.88;100.00
19797;BME280;10058;57.654;12.044;2023-04-09T03:16:40;102350.47;;;3.80;100.00
19797;BME280;10058;57.654;12.044;2023-04-09T03:19:05;102345.53;;;3.73;100.00
19797;BME280;10058;57.654;12.044;2023-04-09T03:21:30;102344.75;;;3.74;100.00
19797;BME280;10058;57.654;12.044;2023-04-09T03:23:56;102339.00;;;3.68;100.00
19797;BME280;10058;57.654;12.044;2023-04-09T03:29:23;102342.28;;;3.65;100.00
19797;BME280;10058;57.654;12.044;2023-04-09T03:31:48;102336.41;;;3.68;100.00
19797;BME280;10058;57.654;12.044;2023-04-09T03:34:14;102352.22;;;3.69;100.00
19797;BME280;10058;57.654;12.044;2023-04-09T03:36:39;102344.50;;;3.71;100.00
19797;BME280;10058;57.654;12.044;2023-04-09T03:39:04;102344.50;;;3.71;100.00
19797;BME280;10058;57.654;12.044;2023-04-09T03:41:30;102342.13;;;3.74;100.00
19797;BME280;10058;57.654;12.044;2023-04-09T03:43:55;102342.00;;;3.72;100.00
19797;BME280;10058;57.654;12.044;2023-04-09T03:49:23;102346.06;;;3.69;100.00
19797;BME280;10058;57.654;12.044;2023-04-09T03:51:48;102351.81;;;3.75;100.00
19797;BME280;10058;57.654;12.044;2023-04-09T03:54:13;102350.59;;;3.60;100.00
19797;BME280;10058;57.654;12.044;2023-04-09T03:56:38;102346.69;;;3.55;100.00
19797;BME280;10058;57.654;12.044;2023-04-09T03:59:03;102347.22;;;3.50;100.00
19797;BME280;10058;57.654;12.044;2023-04-09T04:01:28;102343.09;;;3.42;100.00
19797;BME280;10058;57.654;12.044;2023-04-09T04:03:54;102351.06;;;3.34;100.00
19797;BME280;10058;57.654;12.044;2023-04-09T04:09:22;102301.94;;;2.98;100.00
19797;BME280;10058;57.654;12.044;2023-04-09T04:11:47;102346.16;;;3.17;100.00
19797;BME280;10058;57.654;12.044;2023-04-09T04:14:12;102348.66;;;3.15;100.00
19797;BME280;10058;57.654;12.044;2023-04-09T04:16:40;102350.00;;;3.10;100.00
19797;BME280;10058;57.654;12.044;2023-04-09T04:19:06;102351.03;;;3.02;100.00
19797;BME280;10058;57.654;12.044;2023-04-09T04:21:31;102347.56;;;2.91;100.00
19797;BME280;10058;57.654;12.044;2023-04-09T04:23:56;102356.00;;;2.99;100.00
19797;BME280;10058;57.654;12.044;2023-04-09T04:29:31;102358.00;;;2.91;100.00
19797;BME280;10058;57.654;12.044;2023-04-09T04:31:56;102356.19;;;2.90;100.00
19797;BME280;10058;57.654;12.044;2023-04-09T04:34:21;102361.53;;;2.92;100.00
19797;BME280;10058;57.654;12.044;2023-04-09T04:36:46;102360.47;;;2.90;100.00
19797;BME280;10058;57.654;12.044;2023-04-09T04:39:12;102358.63;;;2.99;100.00
19797;BME280;10058;57.654;12.044;2023-04-09T04:41:37;102363.31;;;3.03;100.00
19797;BME280;10058;57.654;12.044;2023-04-09T04:44:02;102363.31;;;3.03;100.00
19797;BME280;10058;57.654;12.044;2023-04-09T04:49:30;102361.75;;;3.05;100.00
19797;BME280;10058;57.654;12.044;2023-04-09T04:51:55;102366.19;;;3.06;100.00
19797;BME280;10058;57.654;12.044;2023-04-09T04:54:20;102364.63;;;3.08;100.00
19797;BME280;10058;57.654;12.044;2023-04-09T04:56:46;102365.41;;;3.07;100.00
19797;BME280;10058;57.654;12.044;2023-04-09T04:59:11;102363.84;;;3.09;100.00
19797;BME280;10058;57.654;12.044;2023-04-09T05:01:36;102368.97;;;3.29;100.00
19797;BME280;10058;57.654;12.044;2023-04-09T05:04:01;102361.13;;;3.39;100.00
19797;BME280;10058;57.654;12.044;2023-04-09T05:09:30;102363.28;;;4.20;100.00
19797;BME280;10058;57.654;12.044;2023-04-09T05:11:55;102365.13;;;4.33;100.00
19797;BME280;10058;57.654;12.044;2023-04-09T05:14:21;102364.41;;;4.46;100.00
19797;BME280;10058;57.654;12.044;2023-04-09T05:16:46;102366.78;;;5.00;100.00
19797;BME280;10058;57.654;12.044;2023-04-09T05:19:11;102355.63;;;5.14;100.00
19797;BME280;10058;57.654;12.044;2023-04-09T05:21:36;102355.16;;;5.08;100.00
19797;BME280;10058;57.654;12.044;2023-04-09T05:24:01;102353.91;;;5.03;100.00
19797;BME280;10058;57.654;12.044;2023-04-09T05:29:29;102361.28;;;5.67;100.00
19797;BME280;10058;57.654;12.044;2023-04-09T05:31:54;102348.13;;;5.78;100.00
19797;BME280;10058;57.654;12.044;2023-04-09T05:34:20;102352.56;;;5.91;100.00
19797;BME280;10058;57.654;12.044;2023-04-09T05:36:45;102340.94;;;6.62;100.00
19797;BME280;10058;57.654;12.044;2023-04-09T05:39:10;102342.63;;;6.99;100.00
19797;BME280;10058;57.654;12.044;2023-04-09T05:41:35;102345.72;;;6.81;100.00
19797;BME280;10058;57.654;12.044;2023-04-09T05:44:02;102353.00;;;6.47;100.00
19797;BME280;10058;57.654;12.044;2023-04-09T05:49:30;102350.94;;;6.29;100.00
19797;BME280;10058;57.654;12.044;2023-04-09T05:51:55;102338.53;;;7.71;100.00
19797;BME280;10058;57.654;12.044;2023-04-09T05:54:20;102329.59;;;9.88;100.00
19797;BME280;10058;57.654;12.044;2023-04-09T05:56:45;102312.94;;;11.96;100.00
19797;BME280;10058;57.654;12.044;2023-04-09T05:59:12;102300.50;;;13.13;100.00
19797;BME280;10058;57.654;12.044;2023-04-09T06:01:37;102292.72;;;14.07;100.00
19797;BME280;10058;57.654;12.044;2023-04-09T06:04:02;102286.25;;;14.47;100.00
19797;BME280;10058;57.654;12.044;2023-04-09T06:09:30;102334.06;;;9.27;100.00
19797;BME280;10058;57.654;12.044;2023-04-09T06:11:55;102346.63;;;8.43;100.00
19797;BME280;10058;57.654;12.044;2023-04-09T06:14:21;102341.91;;;8.24;100.00
19797;BME280;10058;57.654;12.044;2023-04-09T06:16:46;102339.97;;;8.21;100.00
19797;BME280;10058;57.654;12.044;2023-04-09T06:19:11;102347.47;;;8.28;100.00
19797;BME280;10058;57.654;12.044;2023-04-09T06:21:37;102338.09;;;8.47;100.00
19797;BME280;10058;57.654;12.044;2023-04-09T06:24:02;102337.31;;;8.34;100.00
19797;BME280;10058;57.654;12.044;2023-04-09T06:29:30;102357.88;;;8.40;100.00
19797;BME280;10058;57.654;12.044;2023-04-09T06:31:55;102348.97;;;8.53;100.00
19797;BME280;10058;57.654;12.044;2023-04-09T06:34:20;102348.28;;;8.70;100.00
19797;BME280;10058;57.654;12.044;2023-04-09T06:36:45;102354.75;;;8.75;100.00
19797;BME280;10058;57.654;12.044;2023-04-09T06:39:11;102351.66;;;8.82;100.00
19797;BME280;10058;57.654;12.044;2023-04-09T06:41:36;102349.00;;;9.12;100.00
19797;BME280;10058;57.654;12.044;2023-04-09T06:44:02;102349.72;;;9.24;100.00
19797;BME280;10058;57.654;12.044;2023-04-09T06:49:30;102350.38;;;9.65;100.00
19797;BME280;10058;57.654;12.044;2023-04-09T06:51:55;102350.56;;;9.85;100.00
19797;BME280;10058;57.654;12.044;2023-04-09T06:54:20;102352.06;;;9.96;100.00
19797;BME280;10058;57.654;12.044;2023-04-09T06:56:45;102358.19;;;10.11;100.00
19797;BME280;10058;57.654;12.044;2023-04-09T06:59:11;102351.28;;;10.29;100.00
19797;BME280;10058;57.654;12.044;2023-04-09T07:01:36;102348.00;;;10.33;100.00
19797;BME280;10058;57.654;12.044;2023-04-09T07:04:01;102347.47;;;10.40;100.00
19797;BME280;10058;57.654;12.044;2023-04-09T07:09:29;102341.53;;;10.44;100.00
19797;BME280;10058;57.654;12.044;2023-04-09T07:11:55;102349.53;;;10.62;100.00
19797;BME280;10058;57.654;12.044;2023-04-09T07:14:20;102348.84;;;10.82;100.00
19797;BME280;10058;57.654;12.044;2023-04-09T07:16:45;102353.88;;;10.78;100.00
19797;BME280;10058;57.654;12.044;2023-04-09T07:19:11;102344.78;;;10.89;100.00
19797;BME280;10058;57.654;12.044;2023-04-09T07:21:36;102352.00;;;10.93;100.00
19797;BME280;10058;57.654;12.044;2023-04-09T07:24:01;102348.03;;;11.01;100.00
19797;BME280;10058;57.654;12.044;2023-04-09T07:29:29;102346.00;;;11.13;100.00
19797;BME280;10058;57.654;12.044;2023-04-09T07:31:55;102346.75;;;11.29;100.00
19797;BME280;10058;57.654;12.044;2023-04-09T07:34:20;102343.59;;;11.36;100.00
19797;BME280;10058;57.654;12.044;2023-04-09T07:36:45;102342.53;;;11.50;100.00
19797;BME280;10058;57.654;12.044;2023-04-09T07:39:10;102340.72;;;11.49;100.00
19797;BME280;10058;57.654;12.044;2023-04-09T07:41:35;102339.56;;;11.44;100.00
19797;BME280;10058;57.654;12.044;2023-04-09T07:44:01;102338.91;;;11.48;100.00
19797;BME280;10058;57.654;12.044;2023-04-09T07:49:30;102334.19;;;11.78;99.12
19797;BME280;10058;57.654;12.044;2023-04-09T07:51:56;102324.19;;;11.72;99.44
19797;BME280;10058;57.654;12.044;2023-04-09T07:54:21;102321.16;;;11.82;99.01
19797;BME280;10058;57.654;12.044;2023-04-09T07:56:46;102289.31;;;11.63;95.10
19797;BME280;10058;57.654;12.044;2023-04-09T07:59:12;102324.97;;;11.88;96.65
19797;BME280;10058;57.654;12.044;2023-04-09T08:01:39;102326.78;;;11.89;92.21
19797;BME280;10058;57.654;12.044;2023-04-09T08:04:04;102327.06;;;11.95;91.42
19797;BME280;10058;57.654;12.044;2023-04-09T08:09:32;102319.00;;;12.11;90.49
19797;BME280;10058;57.654;12.044;2023-04-09T08:11:57;102320.09;;;12.16;89.47
19797;BME280;10058;57.654;12.044;2023-04-09T08:14:22;102321.59;;;12.30;89.93
19797;BME280;10058;57.654;12.044;2023-04-09T08:16:48;102324.84;;;12.23;86.74
19797;BME280;10058;57.654;12.044;2023-04-09T08:19:14;102324.75;;;12.41;88.16
19797;BME280;10058;57.654;12.044;2023-04-09T08:21:40;102316.66;;;12.18;85.28
19797;BME280;10058;57.654;12.044;2023-04-09T08:24:11;102312.72;;;12.28;86.08
19797;BME280;10058;57.654;12.044;2023-04-09T08:29:39;102318.28;;;12.34;85.10
19797;BME280;10058;57.654;12.044;2023-04-09T08:32:04;102309.91;;;12.65;89.64
19797;BME280;10058;57.654;12.044;2023-04-09T08:34:30;102313.25;;;12.80;86.03
19797;BME280;10058;57.654;12.044;2023-04-09T08:36:55;102308.25;;;12.88;86.99
19797;BME280;10058;57.654;12.044;2023-04-09T08:39:20;102298.16;;;13.00;86.25
19797;BME280;10058;57.654;12.044;2023-04-09T08:41:46;102295.13;;;12.91;90.21
19797;BME280;10058;57.654;12.044;2023-04-09T08:44:13;102297.97;;;13.16;89.34
19797;BME280;10058;57.654;12.044;2023-04-09T08:49:41;102293.72;;;13.20;88.92
19797;BME280;10058;57.654;12.044;2023-04-09T08:52:07;102291.38;;;13.28;91.46
19797;BME280;10058;57.654;12.044;2023-04-09T08:54:32;102291.28;;;13.05;88.89
19797;BME280;10058;57.654;12.044;2023-04-09T08:56:57;102290.03;;;12.96;93.30
19797;BME280;10058;57.654;12.044;2023-04-09T08:59:22;102295.97;;;12.90;90.87
19797;BME280;10058;57.654;12.044;2023-04-09T09:01:48;102296.59;;;13.05;93.35
19797;BME280;10058;57.654;12.044;2023-04-09T09:04:18;102292.09;;;13.23;95.54
19797;BME280;10058;57.654;12.044;2023-04-09T09:10:04;102281.91;;;13.34;94.01
19797;BME280;10058;57.654;12.044;2023-04-09T09:12:33;102283.63;;;13.34;91.50
19797;BME280;10058;57.654;12.044;2023-04-09T09:14:58;102278.53;;;13.38;92.90
19797;BME280;10058;57.654;12.044;2023-04-09T09:17:24;102284.44;;;13.10;93.65
19797;BME280;10058;57.654;12.044;2023-04-09T09:19:49;102283.25;;;13.45;94.67
19797;BME280;10058;57.654;12.044;2023-04-09T09:22:15;102279.56;;;13.42;91.59
19797;BME280;10058;57.654;12.044;2023-04-09T09:24:46;102278.72;;;13.43;90.93
19797;BME280;10058;57.654;12.044;2023-04-09T09:30:21;102278.47;;;13.37;88.83
19797;BME280;10058;57.654;12.044;2023-04-09T09:32:47;102283.84;;;13.16;90.82
19797;BME280;10058;57.654;12.044;2023-04-09T09:35:15;102271.72;;;13.45;91.31
19797;BME280;10058;57.654;12.044;2023-04-09T09:37:40;102269.72;;;13.84;92.44
19797;BME280;10058;57.654;12.044;2023-04-09T09:40:06;102267.75;;;14.02;91.15
19797;BME280;10058;57.654;12.044;2023-04-09T09:42:31;102277.31;;;13.52;88.99
19797;BME280;10058;57.654;12.044;2023-04-09T09:48:00;102271.00;;;13.49;92.53
19797;BME280;10058;57.654;12.044;2023-04-09T09:50:26;102264.66;;;13.68;90.78
19797;BME280;10058;57.654;12.044;2023-04-09T09:52:57;102271.53;;;13.63;90.00
19797;BME280;10058;57.654;12.044;2023-04-09T09:55:23;102269.81;;;13.87;89.55
19797;BME280;10058;57.654;12.044;2023-04-09T09:57:51;102269.28;;;13.73;89.48
19797;BME280;10058;57.654;12.044;2023-04-09T10:00:17;102267.19;;;13.65;90.08
19797;BME280;10058;57.654;12.044;2023-04-09T10:02:43;102257.69;;;13.71;92.24
19797;BME280;10058;57.654;12.044;2023-04-09T10:08:14;102257.75;;;13.73;90.30
19797;BME280;10058;57.654;12.044;2023-04-09T10:10:40;102251.41;;;13.69;90.71
19797;BME280;10058;57.654;12.044;2023-04-09T10:13:19;102252.66;;;14.03;92.32
19797;BME280;10058;57.654;12.044;2023-04-09T10:15:45;102248.50;;;14.33;91.89
19797;BME280;10058;57.654;12.044;2023-04-09T10:18:11;102248.84;;;14.18;90.70
19797;BME280;10058;57.654;12.044;2023-04-09T10:20:40;102240.03;;;14.19;91.28
19797;BME280;10058;57.654;12.044;2023-04-09T10:23:08;102235.09;;;13.82;85.70
19797;BME280;10058;57.654;12.044;2023-04-09T10:28:38;102237.31;;;14.18;86.10
19797;BME280;10058;57.654;12.044;2023-04-09T10:31:03;102241.13;;;14.26;84.53
19797;BME280;10058;57.654;12.044;2023-04-09T10:33:28;102231.41;;;14.03;82.53
19797;BME280;10058;57.654;12.044;2023-04-09T10:35:55;102231.69;;;14.10;82.03
19797;BME280;10058;57.654;12.044;2023-04-09T10:39:05;102228.13;;;14.10;81.01
19797;BME280;10058;57.654;12.044;2023-04-09T10:41:13;102225.06;;;14.47;78.04
19797;BME280;10058;57.654;12.044;2023-04-09T10:43:39;102227.09;;;14.30;77.18
19797;BME280;10058;57.654;12.044;2023-04-09T10:51:36;102216.69;;;14.87;74.34
19797;BME280;10058;57.654;12.044;2023-04-09T10:54:03;102209.22;;;14.77;72.96
19797;BME280;10058;57.654;12.044;2023-04-09T10:56:28;102209.63;;;14.62;72.47
19797;BME280;10058;57.654;12.044;2023-04-09T10:58:53;102214.16;;;14.65;74.51
19797;BME280;10058;57.654;12.044;2023-04-09T11:01:21;102211.72;;;14.71;71.21
19797;BME280;10058;57.654;12.044;2023-04-09T11:03:51;102207.41;;;14.76;71.73
19797;BME280;10058;57.654;12.044;2023-04-09T11:09:36;102207.75;;;14.34;71.91
19797;BME280;10058;57.654;12.044;2023-04-09T11:12:01;102211.25;;;14.84;72.21
19797;BME280;10058;57.654;12.044;2023-04-09T11:14:27;102208.44;;;15.06;70.67
19797;BME280;10058;57.654;12.044;2023-04-09T11:16:52;102200.56;;;15.38;69.46
19797;BME280;10058;57.654;12.044;2023-04-09T11:19:19;102201.25;;;15.32;70.22
19797;BME280;10058;57.654;12.044;2023-04-09T11:21:44;102205.00;;;15.10;69.17
19797;BME280;10058;57.654;12.044;2023-04-09T11:27:14;102205.22;;;15.16;68.58
19797;BME280;10058;57.654;12.044;2023-04-09T11:29:39;102203.44;;;14.88;66.35
19797;BME280;10058;57.654;12.044;2023-04-09T11:32:04;102204.13;;;14.83;65.23
19797;BME280;10058;57.654;12.044;2023-04-09T11:34:32;102202.59;;;14.91;63.68
19797;BME280;10058;57.654;12.044;2023-04-09T11:36:58;102204.16;;;14.84;66.30
19797;BME280;10058;57.654;12.044;2023-04-09T11:39:27;102192.84;;;15.18;66.68
19797;BME280;10058;57.654;12.044;2023-04-09T11:41:52;102192.06;;;15.51;66.29
19797;BME280;10058;57.654;12.044;2023-04-09T11:44:19;102195.88;;;15.02;61.89
19797;BME280;10058;57.654;12.044;2023-04-09T11:49:47;102197.97;;;15.12;62.00
19797;BME280;10058;57.654;12.044;2023-04-09T11:52:13;102184.72;;;15.44;71.86
19797;BME280;10058;57.654;12.044;2023-04-09T11:54:40;102182.56;;;15.30;78.89
19797;BME280;10058;57.654;12.044;2023-04-09T11:57:05;102188.25;;;15.43;79.42
19797;BME280;10058;57.654;12.044;2023-04-09T11:59:31;102186.63;;;15.48;79.25
19797;BME280;10058;57.654;12.044;2023-04-09T12:01:56;102186.44;;;15.42;77.71
19797;BME280;10058;57.654;12.044;2023-04-09T12:07:30;102179.41;;;15.15;78.84
19797;BME280;10058;57.654;12.044;2023-04-09T12:09:55;102183.31;;;14.98;78.94
19797;BME280;10058;57.654;12.044;2023-04-09T12:12:26;102177.09;;;14.71;78.73
19797;BME280;10058;57.654;12.044;2023-04-09T12:14:52;102171.78;;;14.71;80.53
19797;BME280;10058;57.654;12.044;2023-04-09T12:17:19;102168.50;;;15.08;80.67
19797;BME280;10058;57.654;12.044;2023-04-09T12:19:47;102180.50;;;14.67;78.32
19797;BME280;10058;57.654;12.044;2023-04-09T12:22:12;102167.72;;;15.10;80.32
19797;BME280;10058;57.654;12.044;2023-04-09T12:27:40;102153.66;;;15.44;78.82
19797;BME280;10058;57.654;12.044;2023-04-09T12:30:05;102147.91;;;15.59;78.22
19797;BME280;10058;57.654;12.044;2023-04-09T12:32:31;102151.13;;;15.49;76.50
19797;BME280;10058;57.654;12.044;2023-04-09T12:34:56;102157.53;;;15.25;74.64
19797;BME280;10058;57.654;12.044;2023-04-09T12:37:21;102154.41;;;15.39;74.52
19797;BME280;10058;57.654;12.044;2023-04-09T12:39:46;102161.59;;;15.43;79.21
19797;BME280;10058;57.654;12.044;2023-04-09T12:42:13;102166.47;;;14.71;75.95
19797;BME280;10058;57.654;12.044;2023-04-09T12:44:38;102158.75;;;14.80;77.44
19797;BME280;10058;57.654;12.044;2023-04-09T12:47:03;102162.06;;;14.73;78.67
19797;BME280;10058;57.654;12.044;2023-04-09T12:49:28;102171.97;;;14.26;75.41
19797;BME280;10058;57.654;12.044;2023-04-09T12:51:55;102170.38;;;14.82;78.29
19797;BME280;10058;57.654;12.044;2023-04-09T12:54:20;102175.50;;;14.25;75.89
19797;BME280;10058;57.654;12.044;2023-04-09T12:56:47;102159.41;;;14.46;77.38
19797;BME280;10058;57.654;12.044;2023-04-09T12:59:14;102169.53;;;14.57;78.08
19797;BME280;10058;57.654;12.044;2023-04-09T13:01:39;102166.78;;;14.29;76.17
19797;BME280;10058;57.654;12.044;2023-04-09T13:04:04;102159.50;;;14.49;78.42
19797;BME280;10058;57.654;12.044;2023-04-09T13:09:32;102164.84;;;14.25;76.50
19797;BME280;10058;57.654;12.044;2023-04-09T13:11:59;102164.97;;;14.28;78.64
19797;BME280;10058;57.654;12.044;2023-04-09T13:14:24;102164.84;;;14.25;75.29
19797;BME280;10058;57.654;12.044;2023-04-09T13:16:49;102155.09;;;14.49;77.19
19797;BME280;10058;57.654;12.044;2023-04-09T13:19:16;102154.06;;;14.73;79.26
19797;BME280;10058;57.654;12.044;2023-04-09T13:21:42;102159.00;;;14.10;76.37
19797;BME280;10058;57.654;12.044;2023-04-09T13:24:07;102162.19;;;14.00;76.10
19797;BME280;10058;57.654;12.044;2023-04-09T13:29:35;102154.03;;;14.19;81.26
19797;BME280;10058;57.654;12.044;2023-04-09T13:32:01;102146.16;;;14.47;78.87
19797;BME280;10058;57.654;12.044;2023-04-09T13:34:30;102149.13;;;14.31;77.43
19797;BME280;10058;57.654;12.044;2023-04-09T13:36:55;102147.84;;;14.45;77.75
19797;BME280;10058;57.654;12.044;2023-04-09T13:39:21;102150.59;;;14.23;78.10
19797;BME280;10058;57.654;12.044;2023-04-09T13:41:46;102141.00;;;14.03;78.69
19797;BME280;10058;57.654;12.044;2023-04-09T13:44:11;102144.00;;;14.37;82.04
19797;BME280;10058;57.654;12.044;2023-04-09T13:49:39;102146.84;;;13.67;80.32
19797;BME280;10058;57.654;12.044;2023-04-09T13:52:05;102148.06;;;13.53;81.46
19797;BME280;10058;57.654;12.044;2023-04-09T13:54:30;102144.75;;;13.82;85.73
19797;BME280;10058;57.654;12.044;2023-04-09T13:56:56;102146.38;;;13.79;83.96
19797;BME280;10058;57.654;12.044;2023-04-09T13:59:21;102150.44;;;13.69;86.71
19797;BME280;10058;57.654;12.044;2023-04-09T14:01:46;102157.13;;;13.36;85.73
19797;BME280;10058;57.654;12.044;2023-04-09T14:04:11;102154.78;;;12.99;85.96
19797;BME280;10058;57.654;12.044;2023-04-09T14:09:39;102142.13;;;13.14;86.89
19797;BME280;10058;57.654;12.044;2023-04-09T14:12:04;102135.19;;;12.95;86.98
19797;BME280;10058;57.654;12.044;2023-04-09T14:14:29;102137.59;;;13.11;86.80
19797;BME280;10058;57.654;12.044;2023-04-09T14:16:55;102136.16;;;13.19;86.59
19797;BME280;10058;57.654;12.044;2023-04-09T14:19:20;102141.72;;;13.26;85.01
19797;BME280;10058;57.654;12.044;2023-04-09T14:21:45;102133.59;;;13.00;85.57
19797;BME280;10058;57.654;12.044;2023-04-09T14:24:10;102126.50;;;13.21;84.81
19797;BME280;10058;57.654;12.044;2023-04-09T14:29:38;102127.44;;;13.46;86.56
19797;BME280;10058;57.654;12.044;2023-04-09T14:32:03;102127.09;;;13.61;87.14
19797;BME280;10058;57.654;12.044;2023-04-09T14:34:29;102136.63;;;13.55;87.13
19797;BME280;10058;57.654;12.044;2023-04-09T14:36:55;102131.34;;;13.32;88.55
19797;BME280;10058;57.654;12.044;2023-04-09T14:39:20;102127.94;;;13.59;89.09
19797;BME280;10058;57.654;12.044;2023-04-09T14:41:45;102124.78;;;13.46;87.76
19797;BME280;10058;57.654;12.044;2023-04-09T14:44:11;102122.94;;;13.69;87.11
19797;BME280;10058;57.654;12.044;2023-04-09T14:49:39;102127.28;;;13.65;85.49
19797;BME280;10058;57.654;12.044;2023-04-09T14:52:04;102124.44;;;13.84;86.18
19797;BME280;10058;57.654;12.044;2023-04-09T14:54:29;102115.84;;;13.44;85.87
19797;BME280;10058;57.654;12.044;2023-04-09T14:56:55;102123.84;;;13.69;86.83